Time;durP1;ratioP1;P1;durP2;ratioP2;P2;SDS_P1;SDS_P2;PMS_P1;PMS_P2;Temp;Humidity;BMP_temperature;BMP_pressure;BME280_temperature;BME280_humidity;BME280_pressure;Samples;Min_cycle;Max_cycle;Signal;HPM_P1;HPM_P2
2023/04/09 00:01:11;;;;;;;14.15;10.27;;;9.40;99.90;;;;;;5012667;28;20025;-89
2023/04/09 00:03:37;;;;;;;14.25;9.52;;;9.40;99.90;;;;;;5013962;28;20064;-88
2023/04/09 00:06:06;;;;;;;13.45;8.68;;;9.30;99.90;;;;;;5010905;28;20079;-90
2023/04/09 00:08:32;;;;;;;14.00;8.90;;;9.30;99.90;;;;;;5029602;28;20309;-90
2023/04/09 00:10:58;;;;;;;14.10;8.65;;;9.30;99.90;;;;;;5029651;28;20131;-87
2023/04/09 00:13:24;;;;;;;12.30;8.30;;;9.30;99.90;;;;;;5029022;28;20059;-88
2023/04/09 00:15:50;;;;;;;14.43;9.68;;;9.30;99.90;;;;;;5023465;28;20029;-88
2023/04/09 00:18:16;;;;;;;15.43;10.15;;;9.40;99.90;;;;;;5014012;28;20369;-88
2023/04/09 00:20:43;;;;;;;15.82;10.77;;;9.30;99.90;;;;;;5012081;28;20041;-88
2023/04/09 00:23:08;;;;;;;18.15;11.23;;;9.30;99.90;;;;;;5012838;28;20029;-88
2023/04/09 00:25:37;;;;;;;15.88;10.55;;;9.30;99.90;;;;;;5027102;28;20445;-88
2023/04/09 00:28:03;;;;;;;16.15;10.88;;;9.30;99.90;;;;;;5044044;28;20029;-89
2023/04/09 00:30:29;;;;;;;15.50;9.85;;;9.30;99.90;;;;;;5011263;28;20024;-87
2023/04/09 00:32:55;;;;;;;13.77;9.60;;;9.30;99.90;;;;;;5027633;28;20493;-87
2023/04/09 00:35:21;;;;;;;14.10;9.40;;;9.30;99.90;;;;;;5008174;28;20025;-87
2023/04/09 00:37:47;;;;;;;17.13;10.13;;;9.30;99.90;;;;;;5027972;28;20025;-88
2023/04/09 00:40:13;;;;;;;13.65;9.10;;;9.30;99.90;;;;;;5011381;28;20029;-89
2023/04/09 00:42:38;;;;;;;15.15;9.70;;;9.30;99.90;;;;;;5031013;28;20078;-88
2023/04/09 00:45:05;;;;;;;13.95;9.35;;;9.30;99.90;;;;;;5030006;28;20104;-89
2023/04/09 00:47:32;;;;;;;14.93;9.77;;;9.20;99.90;;;;;;5010438;28;20032;-87
2023/04/09 00:49:59;;;;;;;14.48;9.52;;;9.30;99.90;;;;;;5011431;28;20034;-88
2023/04/09 00:52:25;;;;;;;15.70;10.02;;;9.30;99.90;;;;;;5026874;28;20025;-89
2023/04/09 00:54:51;;;;;;;13.13;8.45;;;9.30;99.90;;;;;;5012043;28;20568;-89
2023/04/09 00:57:18;;;;;;;14.05;8.80;;;9.30;99.90;;;;;;5029512;28;20493;-88
2023/04/09 00:59:44;;;;;;;12.20;8.52;;;9.30;99.90;;;;;;5012622;28;20449;-89
2023/04/09 01:02:10;;;;;;;14.70;8.82;;;9.30;99.90;;;;;;5031164;28;20032;-89
2023/04/09 01:04:37;;;;;;;13.82;8.80;;;9.20;99.90;;;;;;5030221;28;20029;-89
2023/04/09 01:07:38;;;;;;;13.20;8.27;;;9.20;99.90;;;;;;5027698;28;20440;-88
2023/04/09 01:10:34;;;;;;;12.80;8.75;;;9.20;99.90;;;;;;5019193;28;20493;-89
2023/04/09 01:13:12;;;;;;;12.98;9.13;;;9.20;99.90;;;;;;5028018;28;20430;-89
2023/04/09 01:15:54;;;;;;;13.18;9.43;;;9.20;99.90;;;;;;5010435;28;20025;-89
2023/04/09 01:18:41;;;;;;;14.73;9.85;;;9.20;99.90;;;;;;5024643;28;20025;-89
2023/04/09 01:21:18;;;;;;;13.88;9.52;;;9.20;99.90;;;;;;5015176;28;20032;-89
2023/04/09 01:24:22;;;;;;;13.30;8.48;;;9.20;99.90;;;;;;5013495;28;20025;-88
2023/04/09 01:27:07;;;;;;;14.45;8.63;;;9.20;99.90;;;;;;5018173;28;20456;-87
2023/04/09 01:29:53;;;;;;;12.68;8.15;;;9.20;99.90;;;;;;5030651;28;20026;-89
2023/04/09 01:32:19;;;;;;;13.02;9.30;;;9.20;99.90;;;;;;5016573;28;20033;-88
2023/04/09 01:34:47;;;;;;;14.45;9.38;;;9.20;99.90;;;;;;5012103;28;20337;-90
2023/04/09 01:37:15;;;;;;;12.65;8.70;;;9.10;99.90;;;;;;5017132;28;20388;-89
2023/04/09 01:39:41;;;;;;;13.50;8.73;;;9.10;99.90;;;;;;5032642;28;20308;-88
2023/04/09 01:42:10;;;;;;;12.63;9.13;;;9.10;99.90;;;;;;5033603;28;20025;-89
2023/04/09 01:44:40;;;;;;;12.18;8.02;;;9.10;99.90;;;;;;5032490;28;20028;-89
2023/04/09 01:47:08;;;;;;;12.32;8.55;;;9.10;99.90;;;;;;5032420;28;20025;-88
2023/04/09 01:49:35;;;;;;;12.02;8.15;;;9.10;99.90;;;;;;5032618;28;20033;-88
2023/04/09 01:52:01;;;;;;;12.18;8.02;;;9.10;99.90;;;;;;5015812;28;20389;-89
2023/04/09 01:54:27;;;;;;;13.18;8.95;;;9.10;99.90;;;;;;5014312;28;20068;-87
2023/04/09 01:56:52;;;;;;;12.43;8.35;;;9.10;99.90;;;;;;5005524;28;20084;-88
2023/04/09 01:59:18;;;;;;;11.93;8.50;;;9.10;99.90;;;;;;5009799;28;20037;-88
2023/04/09 02:01:56;;;;;;;14.15;8.60;;;9.10;99.90;;;;;;5009717;28;20033;-87
2023/04/09 02:04:45;;;;;;;12.65;7.78;;;9.10;99.90;;;;;;4989873;28;20042;-89
2023/04/09 02:07:11;;;;;;;12.73;8.52;;;9.10;99.90;;;;;;4993293;28;20036;-88
2023/04/09 02:09:40;;;;;;;11.95;7.80;;;9.10;99.90;;;;;;5007285;28;20042;-87
2023/04/09 02:12:11;;;;;;;10.95;7.72;;;9.10;99.90;;;;;;5025461;28;20544;-88
2023/04/09 02:14:37;;;;;;;11.10;8.05;;;9.10;99.90;;;;;;5003274;28;20068;-87
2023/04/09 02:17:03;;;;;;;12.35;8.40;;;9.10;99.90;;;;;;4988530;28;20028;-88
2023/04/09 02:19:43;;;;;;;11.48;7.78;;;9.10;99.90;;;;;;5025954;28;20034;-88
2023/04/09 02:22:10;;;;;;;13.48;8.38;;;9.00;99.90;;;;;;4991361;28;20038;-88
2023/04/09 02:24:36;;;;;;;11.98;7.18;;;9.00;99.90;;;;;;4991571;28;20406;-88
2023/04/09 02:27:03;;;;;;;11.65;8.30;;;9.10;99.90;;;;;;4991074;28;20037;-87
2023/04/09 02:29:29;;;;;;;11.68;7.75;;;9.00;99.90;;;;;;5009241;28;20489;-87
2023/04/09 02:31:55;;;;;;;11.93;7.97;;;9.00;99.90;;;;;;5023683;28;20109;-88
2023/04/09 02:34:21;;;;;;;10.80;7.70;;;9.00;99.90;;;;;;4990006;28;20026;-89
2023/04/09 02:36:47;;;;;;;11.88;8.13;;;8.90;99.90;;;;;;4987243;28;20026;-88
2023/04/09 02:39:13;;;;;;;11.77;7.85;;;9.00;99.90;;;;;;5010434;28;20037;-91
2023/04/09 02:41:39;;;;;;;11.55;8.40;;;8.90;99.90;;;;;;5004399;28;20380;-91
2023/04/09 02:44:04;;;;;;;12.90;8.30;;;9.00;99.90;;;;;;4989299;28;20049;-89
2023/04/09 02:46:30;;;;;;;10.93;7.43;;;8.90;99.90;;;;;;5004231;28;20117;-88
2023/04/09 02:48:56;;;;;;;16.95;9.65;;;9.00;99.90;;;;;;4987762;28;20022;-88
2023/04/09 02:51:21;;;;;;;12.30;8.45;;;9.00;99.90;;;;;;5028199;28;20259;-91
2023/04/09 02:53:47;;;;;;;15.57;9.48;;;8.90;99.90;;;;;;4987715;28;20037;-94
2023/04/09 02:56:13;;;;;;;11.32;8.45;;;8.90;99.90;;;;;;5006789;28;20025;-91
2023/04/09 02:58:39;;;;;;;11.75;7.68;;;8.90;99.90;;;;;;5027774;28;20050;-92
2023/04/09 03:01:05;;;;;;;11.95;7.68;;;8.90;99.90;;;;;;5009430;28;20048;-91
2023/04/09 03:03:30;;;;;;;11.77;7.78;;;8.90;99.90;;;;;;5026615;28;20378;-91
2023/04/09 03:05:57;;;;;;;14.40;8.30;;;8.80;99.90;;;;;;5028461;28;20029;-92
2023/04/09 03:08:22;;;;;;;13.73;9.02;;;8.80;99.90;;;;;;5008736;28;20493;-91
2023/04/09 03:10:48;;;;;;;13.55;9.45;;;8.80;99.90;;;;;;5009614;28;20128;-90
2023/04/09 03:13:14;;;;;;;12.32;8.10;;;8.80;99.90;;;;;;5013568;28;20026;-92
2023/04/09 03:15:40;;;;;;;13.23;8.35;;;8.80;99.90;;;;;;5007978;28;20057;-89
2023/04/09 03:18:06;;;;;;;12.15;8.27;;;8.80;99.90;;;;;;5009716;28;20429;-92
2023/04/09 03:20:31;;;;;;;12.65;8.40;;;8.80;99.90;;;;;;5008489;28;20025;-92
2023/04/09 03:22:57;;;;;;;10.77;7.38;;;8.80;99.90;;;;;;5008850;28;20029;-89
2023/04/09 03:25:34;;;;;;;11.43;7.88;;;8.80;99.90;;;;;;5012747;28;20055;-89
2023/04/09 03:28:08;;;;;;;12.52;8.30;;;8.70;99.90;;;;;;5010621;28;20080;-90
2023/04/09 03:30:40;;;;;;;14.27;9.07;;;8.70;99.90;;;;;;5012311;28;20462;-93
2023/04/09 03:33:05;;;;;;;13.02;8.30;;;8.70;99.90;;;;;;5024349;28;20066;-92
2023/04/09 03:35:36;;;;;;;17.60;11.95;;;8.70;99.90;;;;;;5011905;28;20021;-88
2023/04/09 03:38:02;;;;;;;18.02;10.88;;;8.60;99.90;;;;;;5010453;28;20036;-89
2023/04/09 03:40:27;;;;;;;17.35;12.02;;;8.50;99.90;;;;;;5010549;28;20525;-93
2023/04/09 03:42:53;;;;;;;14.02;9.68;;;8.60;99.90;;;;;;5010239;28;20461;-91
2023/04/09 03:45:19;;;;;;;13.65;9.75;;;8.50;99.90;;;;;;5013091;28;20029;-91
2023/04/09 03:47:47;;;;;;;15.00;10.02;;;8.50;99.90;;;;;;5005955;28;20026;-89
2023/04/09 03:50:13;;;;;;;17.02;10.68;;;8.50;99.90;;;;;;5009405;28;20030;-88
2023/04/09 03:52:45;;;;;;;14.45;9.43;;;8.50;99.90;;;;;;5006044;28;20490;-88
2023/04/09 03:55:11;;;;;;;15.20;9.50;;;8.40;99.90;;;;;;5009845;28;20037;-88
2023/04/09 03:57:37;;;;;;;17.55;11.88;;;8.40;99.90;;;;;;5010673;28;20038;-88
2023/04/09 04:00:06;;;;;;;15.90;11.23;;;8.40;99.90;;;;;;5010770;28;20041;-88
2023/04/09 04:02:50;;;;;;;20.58;12.35;;;8.30;99.90;;;;;;5024969;28;20128;-88
2023/04/09 04:05:24;;;;;;;20.58;12.90;;;8.20;99.90;;;;;;5035137;28;20126;-88
2023/04/09 04:07:51;;;;;;;18.38;11.82;;;8.10;99.90;;;;;;5010082;28;20025;-89
2023/04/09 04:10:24;;;;;;;16.83;10.85;;;8.00;99.90;;;;;;5012294;28;20470;-88
2023/04/09 04:12:49;;;;;;;16.00;10.10;;;7.90;99.90;;;;;;5006488;28;20032;-87
2023/04/09 04:15:24;;;;;;;16.25;9.73;;;7.80;99.90;;;;;;5010859;28;20087;-87
2023/04/09 04:17:54;;;;;;;15.32;9.63;;;7.70;99.90;;;;;;5027562;28;20029;-87
2023/04/09 04:20:32;;;;;;;16.77;10.32;;;7.70;99.90;;;;;;5026442;28;20040;-88
2023/04/09 04:23:03;;;;;;;16.33;10.48;;;7.60;99.90;;;;;;5008866;28;20104;-88
2023/04/09 04:25:30;;;;;;;13.00;8.52;;;7.60;99.90;;;;;;5009890;28;20029;-87
2023/04/09 04:27:56;;;;;;;15.05;10.00;;;7.50;99.90;;;;;;5009315;28;20382;-87
2023/04/09 04:30:27;;;;;;;13.88;8.40;;;7.40;99.90;;;;;;5008445;28;20041;-88
2023/04/09 04:33:01;;;;;;;13.75;8.27;;;7.40;99.90;;;;;;5011864;28;20018;-87
2023/04/09 04:35:31;;;;;;;12.77;8.32;;;7.30;99.90;;;;;;5011334;28;20030;-88
2023/04/09 04:38:00;;;;;;;15.63;10.02;;;7.30;99.90;;;;;;5026343;28;20553;-87
2023/04/09 04:40:27;;;;;;;14.48;9.30;;;7.20;99.90;;;;;;5007521;28;20034;-87
2023/04/09 04:42:58;;;;;;;16.15;9.73;;;7.20;99.90;;;;;;5007057;28;20052;-88
2023/04/09 04:45:24;;;;;;;14.30;8.70;;;7.20;99.90;;;;;;5006853;28;20433;-88
2023/04/09 04:47:51;;;;;;;15.88;10.55;;;7.10;99.90;;;;;;5009780;28;20072;-89
2023/04/09 04:50:18;;;;;;;15.25;9.18;;;7.00;99.90;;;;;;5008438;28;20454;-87
2023/04/09 04:53:13;;;;;;;13.30;8.68;;;6.90;99.90;;;;;;5025293;28;20061;-88
2023/04/09 04:55:45;;;;;;;16.83;9.98;;;6.90;99.90;;;;;;5014521;28;20069;-88
2023/04/09 04:58:14;;;;;;;15.07;9.32;;;6.80;99.90;;;;;;5031039;28;20136;-88
2023/04/09 05:00:45;;;;;;;16.15;9.85;;;6.70;99.90;;;;;;5021002;28;20041;-88
2023/04/09 05:03:11;;;;;;;15.15;9.02;;;6.70;99.90;;;;;;5014219;28;20026;-88
2023/04/09 05:05:52;;;;;;;14.43;9.05;;;6.70;99.90;;;;;;5015478;28;20311;-89
2023/04/09 05:08:18;;;;;;;12.52;8.07;;;6.70;99.90;;;;;;5046374;28;20022;-88
2023/04/09 05:10:47;;;;;;;13.77;8.65;;;6.60;99.90;;;;;;5014066;28;20052;-89
2023/04/09 05:13:13;;;;;;;18.65;10.27;;;6.60;99.90;;;;;;5012226;28;20479;-89
2023/04/09 05:15:40;;;;;;;11.60;7.07;;;6.50;99.90;;;;;;5013148;28;20028;-90
2023/04/09 05:18:07;;;;;;;15.07;9.25;;;6.50;99.90;;;;;;5045624;28;20424;-89
2023/04/09 05:20:33;;;;;;;14.50;8.40;;;6.50;99.90;;;;;;5007625;28;20038;-89
2023/04/09 05:23:09;;;;;;;15.50;9.13;;;6.50;99.90;;;;;;5043588;28;20099;-88
2023/04/09 05:25:39;;;;;;;13.90;8.88;;;6.40;99.90;;;;;;5027849;28;20030;-87
2023/04/09 05:28:10;;;;;;;15.68;9.35;;;6.50;99.90;;;;;;5011357;28;20048;-89
2023/04/09 05:30:36;;;;;;;12.57;7.75;;;6.50;99.90;;;;;;5010735;28;20198;-88
2023/04/09 05:33:03;;;;;;;15.70;9.15;;;6.50;99.90;;;;;;5012035;28;20025;-88
2023/04/09 05:35:29;;;;;;;18.63;10.98;;;6.40;99.90;;;;;;5007940;28;20028;-88
2023/04/09 05:37:55;;;;;;;16.63;9.60;;;6.40;99.90;;;;;;5014785;28;20488;-88
2023/04/09 05:40:22;;;;;;;15.63;9.23;;;6.40;99.90;;;;;;5010294;28;20034;-89
2023/04/09 05:42:48;;;;;;;13.88;8.57;;;6.40;99.90;;;;;;5013162;28;20053;-88
2023/04/09 05:45:22;;;;;;;17.80;9.65;;;6.50;99.90;;;;;;5012427;28;20405;-88
2023/04/09 05:47:51;;;;;;;13.52;8.02;;;6.50;99.90;;;;;;5011144;28;20025;-88
2023/04/09 05:50:19;;;;;;;16.45;9.40;;;6.50;99.90;;;;;;5013792;28;20034;-87
2023/04/09 05:52:47;;;;;;;13.98;8.35;;;6.50;99.90;;;;;;5013279;28;20117;-88
2023/04/09 05:55:14;;;;;;;13.27;7.32;;;6.50;99.90;;;;;;5029722;28;20052;-89
2023/04/09 05:57:47;;;;;;;13.90;8.35;;;6.50;99.90;;;;;;5010068;28;20049;-90
2023/04/09 06:00:14;;;;;;;13.20;8.30;;;6.50;99.90;;;;;;5013233;28;20072;-91
2023/04/09 06:02:43;;;;;;;16.65;9.10;;;6.60;99.90;;;;;;5028165;28;20497;-90
2023/04/09 06:05:09;;;;;;;18.42;10.13;;;6.60;99.90;;;;;;5018138;28;20542;-89
2023/04/09 06:07:35;;;;;;;17.17;9.75;;;6.60;99.90;;;;;;5011566;28;20109;-89
2023/04/09 06:10:02;;;;;;;17.27;9.85;;;6.70;99.90;;;;;;5011597;28;20026;-90
2023/04/09 06:12:28;;;;;;;17.55;10.40;;;6.70;99.90;;;;;;5010710;28;20025;-91
2023/04/09 06:14:54;;;;;;;21.65;12.38;;;6.70;99.90;;;;;;5023584;28;20033;-90
2023/04/09 06:17:19;;;;;;;18.15;10.57;;;6.70;99.90;;;;;;5008212;28;20033;-90
2023/04/09 06:19:45;;;;;;;15.02;9.35;;;6.80;99.90;;;;;;5021938;28;20050;-90
2023/04/09 06:22:11;;;;;;;15.30;8.45;;;6.90;99.90;;;;;;5012989;28;20025;-89
2023/04/09 06:24:36;;;;;;;17.13;10.57;;;6.90;99.90;;;;;;5005385;28;20376;-87
2023/04/09 06:27:02;;;;;;;17.08;11.45;;;6.90;99.90;;;;;;5012657;28;20028;-88
2023/04/09 06:29:28;;;;;;;18.95;12.18;;;7.00;99.90;;;;;;5011659;28;20064;-91
2023/04/09 06:31:54;;;;;;;18.23;10.82;;;7.10;99.90;;;;;;5007424;28;20098;-91
2023/04/09 06:34:19;;;;;;;19.05;11.45;;;7.10;99.90;;;;;;5023180;28;20116;-88
2023/04/09 06:36:45;;;;;;;18.95;11.38;;;7.20;99.90;;;;;;5011821;28;20030;-92
2023/04/09 06:39:11;;;;;;;19.80;12.35;;;7.30;99.90;;;;;;5009248;28;20052;-89
2023/04/09 06:41:37;;;;;;;18.13;11.85;;;7.40;99.90;;;;;;5006445;28;20030;-90
2023/04/09 06:44:11;;;;;;;18.23;11.02;;;7.50;99.90;;;;;;5009160;28;20444;-88
2023/04/09 06:46:36;;;;;;;22.90;12.88;;;7.60;99.90;;;;;;5010136;28;20056;-88
2023/04/09 06:49:02;;;;;;;18.75;10.65;;;7.80;99.90;;;;;;5010310;28;20029;-90
2023/04/09 06:51:28;;;;;;;19.48;11.07;;;7.90;99.90;;;;;;5022161;28;20478;-89
2023/04/09 06:53:53;;;;;;;16.00;10.30;;;8.00;99.90;;;;;;5007940;28;20080;-88
2023/04/09 06:56:19;;;;;;;13.98;9.07;;;8.20;99.90;;;;;;5009567;28;20528;-88
2023/04/09 06:58:44;;;;;;;17.20;10.77;;;8.30;99.90;;;;;;5021727;28;20045;-90
2023/04/09 07:01:11;;;;;;;17.77;10.07;;;8.30;99.90;;;;;;5011173;28;20037;-90
2023/04/09 07:03:37;;;;;;;17.33;10.52;;;8.50;99.90;;;;;;5012578;28;20100;-91
2023/04/09 07:06:03;;;;;;;17.10;11.35;;;8.60;99.90;;;;;;5009800;28;20557;-90
2023/04/09 07:08:29;;;;;;;19.75;11.13;;;8.70;99.90;;;;;;5009188;28;20030;-91
2023/04/09 07:10:55;;;;;;;18.00;11.10;;;8.80;99.90;;;;;;5005143;28;20032;-91
2023/04/09 07:13:21;;;;;;;15.48;9.63;;;8.80;99.90;;;;;;5009568;28;20025;-91
2023/04/09 07:15:47;;;;;;;16.15;10.85;;;9.00;99.90;;;;;;5041490;28;20037;-91
2023/04/09 07:18:12;;;;;;;16.52;10.25;;;9.10;99.90;;;;;;5012068;28;20022;-92
2023/04/09 07:20:38;;;;;;;13.73;9.32;;;9.20;99.90;;;;;;5002205;28;20406;-91
2023/04/09 07:23:04;;;;;;;17.88;11.77;;;9.40;99.90;;;;;;5010549;28;20087;-90
2023/04/09 07:25:30;;;;;;;18.45;12.07;;;9.40;99.90;;;;;;5008293;28;20080;-89
2023/04/09 07:27:56;;;;;;;15.10;9.90;;;9.40;99.90;;;;;;5004301;28;20034;-90
2023/04/09 07:30:22;;;;;;;16.35;10.93;;;9.70;99.90;;;;;;5007902;28;20033;-91
2023/04/09 07:32:47;;;;;;;13.77;9.65;;;9.80;99.90;;;;;;5011453;28;20477;-91
2023/04/09 07:35:13;;;;;;;16.35;10.18;;;10.00;99.90;;;;;;5025853;28;20029;-91
2023/04/09 07:37:39;;;;;;;16.13;10.30;;;10.00;99.90;;;;;;5008973;28;20083;-90
2023/04/09 07:40:05;;;;;;;16.75;10.02;;;10.10;99.90;;;;;;5008173;28;20037;-90
2023/04/09 07:42:31;;;;;;;15.60;9.82;;;10.30;99.90;;;;;;5008044;28;20091;-89
2023/04/09 07:44:57;;;;;;;17.17;10.43;;;10.40;99.90;;;;;;5005919;28;20029;-90
2023/04/09 07:47:23;;;;;;;14.93;9.32;;;10.50;99.90;;;;;;5011399;28;20068;-90
2023/04/09 07:49:48;;;;;;;19.27;11.90;;;10.60;99.90;;;;;;5025014;28;20029;-87
2023/04/09 07:52:14;;;;;;;12.20;8.95;;;10.70;99.90;;;;;;5008140;28;20034;-90
2023/04/09 07:54:40;;;;;;;13.13;8.70;;;10.80;99.90;;;;;;5027050;28;20025;-91
2023/04/09 07:57:06;;;;;;;14.15;9.10;;;11.00;99.90;;;;;;5050247;28;20074;-89
2023/04/09 07:59:33;;;;;;;14.57;8.68;;;10.90;99.90;;;;;;5002687;28;20478;-88
2023/04/09 08:01:58;;;;;;;11.60;8.10;;;11.10;99.90;;;;;;4997024;28;20030;-88
2023/04/09 08:04:24;;;;;;;14.60;9.55;;;11.20;99.90;;;;;;4988642;28;20032;-89
2023/04/09 08:06:50;;;;;;;13.43;9.02;;;11.30;99.90;;;;;;4987965;28;20410;-89
2023/04/09 08:09:19;;;;;;;11.73;7.35;;;11.50;99.90;;;;;;4980785;28;20049;-90
2023/04/09 08:11:46;;;;;;;12.20;8.73;;;11.60;99.90;;;;;;4989366;28;20042;-90
2023/04/09 08:14:13;;;;;;;16.30;9.40;;;11.70;99.90;;;;;;4988742;28;20030;-88
2023/04/09 08:16:40;;;;;;;12.80;8.57;;;11.70;99.90;;;;;;4988370;28;20058;-89
2023/04/09 08:19:07;;;;;;;14.18;9.05;;;11.80;99.90;;;;;;4984563;28;20042;-92
2023/04/09 08:21:33;;;;;;;14.13;8.88;;;11.80;99.90;;;;;;4986660;28;20021;-91
2023/04/09 08:24:03;;;;;;;12.45;7.95;;;11.80;99.90;;;;;;4999189;28;20062;-90
2023/04/09 08:26:29;;;;;;;11.57;8.55;;;12.00;99.90;;;;;;4985290;28;20125;-88
2023/04/09 08:28:55;;;;;;;10.90;6.93;;;11.90;99.90;;;;;;4992024;28;20044;-89
2023/04/09 08:31:21;;;;;;;9.77;6.90;;;12.30;99.90;;;;;;4994210;28;20026;-88
2023/04/09 08:33:47;;;;;;;10.40;7.18;;;12.50;99.90;;;;;;4994861;28;20117;-90
2023/04/09 08:36:15;;;;;;;11.18;7.45;;;12.60;99.90;;;;;;4991952;28;20409;-88
2023/04/09 08:38:41;;;;;;;10.70;7.30;;;12.50;99.90;;;;;;4993913;28;20113;-89
2023/04/09 08:41:07;;;;;;;9.35;6.07;;;12.70;99.90;;;;;;4993740;28;20173;-87
2023/04/09 08:43:34;;;;;;;8.52;6.03;;;13.10;99.90;;;;;;4994776;28;20025;-88
2023/04/09 08:46:02;;;;;;;9.10;5.82;;;13.10;99.90;;;;;;4993995;28;20035;-87
2023/04/09 08:48:28;;;;;;;8.30;5.95;;;13.10;99.90;;;;;;4993178;28;20034;-86
2023/04/09 08:50:54;;;;;;;8.23;6.15;;;13.20;99.90;;;;;;4991594;28;20402;-86
2023/04/09 08:53:21;;;;;;;9.32;6.30;;;13.20;99.90;;;;;;4992058;28;20029;-87
2023/04/09 08:55:47;;;;;;;7.97;4.75;;;13.30;99.90;;;;;;5008127;28;20034;-87
2023/04/09 08:58:13;;;;;;;7.00;5.25;;;13.20;99.90;;;;;;5010227;28;20063;-85
2023/04/09 09:00:39;;;;;;;10.68;6.60;;;13.30;99.90;;;;;;5031338;28;20586;-88
2023/04/09 09:03:07;;;;;;;9.23;6.07;;;13.30;99.90;;;;;;5031556;28;20479;-86
2023/04/09 09:05:41;;;;;;;8.48;5.95;;;13.60;99.90;;;;;;5016996;28;20461;-87
2023/04/09 09:08:09;;;;;;;9.40;6.10;;;13.90;99.90;;;;;;5030956;28;20066;-84
2023/04/09 09:10:45;;;;;;;7.90;5.90;;;13.80;99.90;;;;;;5030486;28;20094;-88
2023/04/09 09:13:27;;;;;;;9.57;6.75;;;13.70;99.90;;;;;;5032142;28;20367;-88
2023/04/09 09:16:12;;;;;;;7.97;5.15;;;13.70;99.90;;;;;;5030603;28;20481;-84
2023/04/09 09:18:39;;;;;;;7.65;5.78;;;13.90;99.90;;;;;;5010759;28;20469;-85
2023/04/09 09:21:16;;;;;;;8.50;6.07;;;13.90;99.90;;;;;;5016212;28;20033;-87
2023/04/09 09:23:42;;;;;;;9.35;6.78;;;13.90;99.90;;;;;;5026924;28;20112;-90
2023/04/09 09:26:19;;;;;;;9.40;6.78;;;13.90;99.90;;;;;;5022942;28;20034;-87
2023/04/09 09:28:46;;;;;;;11.07;7.35;;;13.90;99.90;;;;;;5016065;28;20021;-91
2023/04/09 09:31:13;;;;;;;8.07;5.70;;;14.20;99.90;;;;;;5029480;28;20044;-89
2023/04/09 09:33:40;;;;;;;9.18;6.70;;;14.60;99.90;;;;;;5010904;28;20032;-91
2023/04/09 09:36:08;;;;;;;9.55;6.15;;;14.40;99.90;;;;;;5027163;28;20063;-88
2023/04/09 09:38:51;;;;;;;7.88;5.68;;;14.60;99.90;;;;;;5023206;28;20029;-90
2023/04/09 09:41:18;;;;;;;8.55;5.20;;;14.60;99.90;;;;;;5028633;28;20033;-87
2023/04/09 09:43:44;;;;;;;7.30;5.20;;;14.70;99.90;;;;;;5047068;28;20125;-91
2023/04/09 09:46:10;;;;;;;9.18;5.78;;;14.60;99.90;;;;;;5008554;28;20075;-92
2023/04/09 09:48:36;;;;;;;5.72;4.30;;;14.70;99.90;;;;;;5033667;28;20033;-87
2023/04/09 09:51:06;;;;;;;9.05;5.47;;;14.70;99.90;;;;;;5033254;28;20040;-90
2023/04/09 09:53:37;;;;;;;8.38;5.47;;;14.90;99.90;;;;;;5013073;28;20691;-89
2023/04/09 09:56:10;;;;;;;6.85;5.28;;;14.80;99.90;;;;;;5032350;28;20021;-93
2023/04/09 09:59:00;;;;;;;7.40;5.22;;;14.80;99.90;;;;;;5012355;28;20493;-87
2023/04/09 10:01:27;;;;;;;8.88;5.93;;;15.00;99.90;;;;;;4953861;28;20521;-88
2023/04/09 10:03:55;;;;;;;7.25;5.10;;;15.00;99.90;;;;;;4969834;28;20170;-89
2023/04/09 10:06:22;;;;;;;7.40;5.30;;;15.10;99.90;;;;;;4953465;28;20047;-88
2023/04/09 10:08:51;;;;;;;6.80;4.20;;;15.40;99.90;;;;;;4968003;28;20126;-87
2023/04/09 10:11:19;;;;;;;5.68;3.65;;;15.40;99.90;;;;;;4954732;28;20045;-92
2023/04/09 10:13:58;;;;;;;6.22;4.07;;;15.20;99.90;;;;;;4968234;28;20054;-91
2023/04/09 10:16:28;;;;;;;5.78;4.18;;;15.30;99.90;;;;;;4982613;28;20128;-93
2023/04/09 10:18:55;;;;;;;4.90;3.30;;;15.30;99.90;;;;;;4982986;28;20042;-95
2023/04/09 10:21:46;;;;;;;5.25;2.92;;;15.40;99.90;;;;;;4970000;28;20041;-92
2023/04/09 10:24:12;;;;;;;4.53;3.28;;;15.40;99.90;;;;;;4969694;28;20055;-91
2023/04/09 10:26:43;;;;;;;4.50;3.00;;;15.30;99.90;;;;;;4955745;28;20073;-92
2023/04/09 10:29:14;;;;;;;4.28;2.60;;;15.30;99.90;;;;;;4955822;28;20031;-90
2023/04/09 10:31:53;;;;;;;3.13;1.80;;;15.60;99.90;;;;;;4955019;28;20039;-86
2023/04/09 10:34:22;;;;;;;3.80;2.20;;;15.80;99.90;;;;;;4955648;28;20027;-88
2023/04/09 10:36:55;;;;;;;2.63;1.50;;;15.90;99.90;;;;;;4969195;28;20038;-88
2023/04/09 10:39:24;;;;;;;3.47;2.03;;;15.90;99.90;;;;;;5033634;28;20422;-86
2023/04/09 10:41:51;;;;;;;4.60;2.42;;;16.20;99.90;;;;;;5014615;28;20132;-89
2023/04/09 10:44:22;;;;;;;3.78;2.08;;;15.70;99.90;;;;;;5035657;28;20040;-91
2023/04/09 10:46:49;;;;;;;3.45;2.05;;;15.90;99.90;;;;;;5033230;28;20029;-89
2023/04/09 10:49:18;;;;;;;3.63;2.28;;;15.70;99.90;;;;;;5009997;28;20017;-88
2023/04/09 10:51:47;;;;;;;4.00;2.65;;;15.80;99.90;;;;;;5010394;28;20036;-91
2023/04/09 10:54:36;;;;;;;5.18;2.67;;;15.50;99.90;;;;;;5017606;28;20115;-88
2023/04/09 10:57:07;;;;;;;3.50;2.22;;;15.60;99.90;;;;;;5007368;28;20534;-87
2023/04/09 10:59:39;;;;;;;4.97;2.25;;;15.80;99.90;;;;;;5016795;28;20094;-88
2023/04/09 11:02:08;;;;;;;5.45;2.95;;;16.10;99.90;;;;;;5029059;28;20033;-93
2023/04/09 11:04:45;;;;;;;4.47;2.92;;;15.80;99.90;;;;;;5033495;28;20029;-89
2023/04/09 11:07:14;;;;;;;3.60;2.15;;;15.80;99.90;;;;;;5033609;28;20025;-88
2023/04/09 11:09:40;;;;;;;3.60;2.33;;;15.80;99.90;;;;;;5012120;28;20030;-89
2023/04/09 11:12:06;;;;;;;3.40;1.95;;;16.10;99.90;;;;;;5049725;28;20052;-88
2023/04/09 11:14:32;;;;;;;3.17;1.90;;;16.20;99.90;;;;;;5044139;28;20377;-86
2023/04/09 11:16:58;;;;;;;3.33;1.73;;;16.30;99.90;;;;;;5029424;28;20083;-90
2023/04/09 11:19:25;;;;;;;3.92;2.20;;;16.50;99.90;;;;;;5014850;28;20064;-87
2023/04/09 11:21:50;;;;;;;3.05;1.98;;;16.30;99.90;;;;;;5016192;28;20051;-90
2023/04/09 11:24:18;;;;;;;2.90;1.70;;;16.10;99.90;;;;;;5017030;28;20037;-88
2023/04/09 11:26:44;;;;;;;2.78;1.40;;;15.90;99.90;;;;;;5010620;28;20055;-89
2023/04/09 11:29:10;;;;;;;2.53;1.45;;;15.80;99.90;;;;;;5049230;28;20025;-88
2023/04/09 11:31:39;;;;;;;2.80;1.67;;;16.20;99.90;;;;;;5030089;28;20045;-88
2023/04/09 11:34:08;;;;;;;3.72;2.05;;;16.30;99.90;;;;;;5011144;28;20053;-87
2023/04/09 11:36:35;;;;;;;4.30;2.50;;;16.70;99.90;;;;;;5009644;28;20083;-91
2023/04/09 11:39:01;;;;;;;3.55;2.22;;;16.80;99.90;;;;;;5014994;28;20087;-88
2023/04/09 11:41:37;;;;;;;3.97;2.15;;;16.60;99.90;;;;;;5012520;28;20149;-87
2023/04/09 11:44:09;;;;;;;4.95;2.65;;;16.50;99.90;;;;;;5012174;28;20031;-88
2023/04/09 11:46:35;;;;;;;3.85;2.58;;;16.40;99.90;;;;;;5045349;28;20046;-90
2023/04/09 11:49:01;;;;;;;3.97;2.70;;;16.30;99.90;;;;;;5027678;28;20029;-85
2023/04/09 11:51:29;;;;;;;3.80;2.40;;;16.30;99.90;;;;;;5026862;28;20112;-88
2023/04/09 11:53:55;;;;;;;3.47;2.47;;;16.60;99.90;;;;;;5030141;28;20025;-85
2023/04/09 11:56:21;;;;;;;5.30;3.72;;;16.90;99.90;;;;;;5031610;28;20476;-91
2023/04/09 11:58:48;;;;;;;6.38;5.03;;;16.70;99.90;;;;;;5010543;28;20053;-91
2023/04/09 12:01:14;;;;;;;7.78;5.45;;;17.00;99.90;;;;;;5036889;28;20033;-87
2023/04/09 12:03:40;;;;;;;6.15;4.57;;;16.90;99.90;;;;;;5010693;28;20413;-89
2023/04/09 12:06:08;;;;;;;5.90;4.15;;;17.20;99.90;;;;;;5043472;28;20033;-86
2023/04/09 12:08:35;;;;;;;5.20;4.25;;;17.90;99.90;;;;;;5010430;28;20160;-86
2023/04/09 12:11:11;;;;;;;5.78;3.90;;;17.10;99.90;;;;;;5007029;28;20041;-94
2023/04/09 12:13:41;;;;;;;6.40;4.60;;;16.10;99.90;;;;;;5026628;28;20423;-87
2023/04/09 12:16:09;;;;;;;6.47;4.72;;;15.60;99.90;;;;;;5009368;28;20030;-89
2023/04/09 12:18:38;;;;;;;5.75;4.05;;;15.50;99.90;;;;;;5009461;28;20057;-90
2023/04/09 12:21:05;;;;;;;4.80;3.55;;;16.10;99.90;;;;;;5007411;28;20352;-87
2023/04/09 12:23:32;;;;;;;5.50;3.88;;;16.60;99.90;;;;;;5010130;28;20037;-87
2023/04/09 12:25:59;;;;;;;4.55;2.60;;;16.80;99.90;;;;;;5006147;28;20489;-88
2023/04/09 12:28:25;;;;;;;4.60;2.88;;;17.00;99.90;;;;;;5007287;28;20424;-89
2023/04/09 12:30:51;;;;;;;3.63;2.97;;;16.60;99.90;;;;;;5024056;28;20033;-88
2023/04/09 12:33:17;;;;;;;4.53;3.50;;;16.20;99.90;;;;;;5006531;28;20112;-87
2023/04/09 12:35:42;;;;;;;6.07;3.72;;;15.70;99.90;;;;;;5009952;28;20036;-90
2023/04/09 12:38:08;;;;;;;5.13;3.90;;;16.20;99.90;;;;;;5005650;28;20037;-86
2023/04/09 12:40:35;;;;;;;4.68;3.95;;;16.70;99.90;;;;;;5008918;28;20689;-87
2023/04/09 12:43:01;;;;;;;4.78;3.63;;;16.90;99.90;;;;;;5026042;28;20034;-88
2023/04/09 12:45:29;;;;;;;6.63;3.85;;;17.20;99.90;;;;;;5027008;28;20124;-90
2023/04/09 12:47:55;;;;;;;3.67;2.88;;;17.10;99.90;;;;;;5021449;28;20060;-88
2023/04/09 12:50:21;;;;;;;5.43;3.63;;;17.40;99.90;;;;;;5026657;28;20038;-89